Terminal Aerodrome Forecast
Issued by NWS

Current Version | Previous Version | Text Only | Print | Product List | Glossary On
Versions: 1 2 3 4 5 6 7 8 9 10 11 12 13 14 15 16 17 18 19
000
FTUS42 KMHX 232300 AAA
TAFOAJ
TAF AMD
KOAJ 232324Z 2323/2424 24015G20KT 5SM TSRA FEW020 SCT030CB BKN040
     FM240030 16006KT P6SM VCTS FEW020 SCT030CB BKN060
     FM240400 21004KT P6SM SCT030
     FM241800 23008KT P6SM VCTS SCT040CB
     FM242300 31007KT P6SM VCTS BKN040CB
      AMD LTD TO CLD VIS AND WIND=

USA.gov is the U.S. government's official web portal to all federal, state and local government web resources and services.